Time,TemperatureF,DewpointF,PressureIn,WindDirection,WindDirectionDegrees,WindSpeedMPH,WindSpeedGustMPH,Humidity,HourlyPrecipIn,Conditions,Clouds,dailyrainin,SoftwareType,DateUTC
2013-04-10 00:00:00,43.9,42.6,29.96,North,0,0.0,0.0,95,0.00,,,0.00,meteobridge,2013-04-10 04:00:00,
2013-04-10 00:01:00,43.9,42.6,29.96,North,0,0.0,0.0,95,0.00,,,0.00,meteobridge,2013-04-10 04:01:00,
2013-04-10 00:06:00,43.9,42.6,29.96,North,0,0.0,0.0,95,0.00,,,0.00,meteobridge,2013-04-10 04:06:00,
2013-04-10 00:11:00,44.2,43.2,29.94,North,0,0.0,0.0,96,0.00,,,0.00,meteobridge,2013-04-10 04:11:00,
2013-04-10 00:16:00,44.4,43.3,29.96,West,270,1.6,1.6,96,0.00,,,0.00,meteobridge,2013-04-10 04:16:00,
2013-04-10 00:21:00,44.6,43.3,29.94,North,0,1.6,1.6,95,0.00,,,0.00,meteobridge,2013-04-10 04:21:00,
2013-04-10 00:27:00,44.6,43.3,29.93,WNW,293,3.8,3.8,95,0.00,,,0.00,meteobridge,2013-04-10 04:27:00,
2013-04-10 00:32:00,44.8,43.5,29.93,North,0,1.6,1.6,95,0.00,,,0.00,meteobridge,2013-04-10 04:32:00,
2013-04-10 00:37:00,44.8,43.2,29.92,NE,45,1.6,2.2,94,0.00,,,0.00,meteobridge,2013-04-10 04:37:00,
2013-04-10 00:42:00,45.0,43.3,29.91,NW,315,2.2,2.2,94,0.00,,,0.00,meteobridge,2013-04-10 04:42:00,
2013-04-10 00:47:00,45.0,43.3,29.92,NE,45,3.1,3.8,94,0.00,,,0.00,meteobridge,2013-04-10 04:47:00,
2013-04-10 00:52:00,45.0,43.0,29.92,NE,45,3.1,3.1,93,0.00,,,0.00,meteobridge,2013-04-10 04:52:00,
2013-04-10 00:57:00,45.0,43.0,29.93,West,270,1.6,3.1,93,0.00,,,0.00,meteobridge,2013-04-10 04:57:00,
2013-04-10 01:03:00,44.8,42.8,29.92,North,0,2.2,2.2,93,0.00,,,0.00,meteobridge,2013-04-10 05:03:00,
2013-04-10 01:08:00,44.6,42.6,29.92,NE,45,2.2,3.1,93,0.00,,,0.00,meteobridge,2013-04-10 05:08:00,
2013-04-10 01:13:00,44.6,42.6,29.93,SE,135,3.1,3.1,93,0.00,,,0.00,meteobridge,2013-04-10 05:13:00,
2013-04-10 01:18:00,44.4,42.4,29.93,NE,45,0.7,1.6,93,0.00,,,0.00,meteobridge,2013-04-10 05:18:00,
2013-04-10 01:23:00,44.2,42.3,29.92,NE,45,2.2,2.2,93,0.00,,,0.00,meteobridge,2013-04-10 05:23:00,
2013-04-10 01:28:00,44.2,42.3,29.91,NE,45,2.2,2.2,93,0.00,,,0.00,meteobridge,2013-04-10 05:28:00,
2013-04-10 01:34:00,44.1,42.1,29.90,North,0,1.6,2.2,93,0.00,,,0.00,meteobridge,2013-04-10 05:34:00,
2013-04-10 01:39:00,43.9,41.9,29.89,North,0,1.6,2.2,93,0.00,,,0.00,meteobridge,2013-04-10 05:39:00,
2013-04-10 01:44:00,43.7,41.7,29.89,North,0,0.7,1.6,93,0.00,,,0.00,meteobridge,2013-04-10 05:44:00,
2013-04-10 01:49:00,43.7,42.1,29.89,North,0,1.6,3.1,94,0.00,,,0.00,meteobridge,2013-04-10 05:49:00,
2013-04-10 01:54:00,43.7,42.1,29.89,North,0,2.2,2.2,94,0.00,,,0.00,meteobridge,2013-04-10 05:54:00,
2013-04-10 01:59:00,43.7,42.1,29.90,East,90,1.6,1.6,94,0.00,,,0.00,meteobridge,2013-04-10 05:59:00,
2013-04-10 02:05:00,43.7,42.1,29.90,East,90,1.6,1.6,94,0.00,,,0.00,meteobridge,2013-04-10 06:05:00,
2013-04-10 02:10:00,43.9,42.3,29.89,NE,45,2.2,2.2,94,0.00,,,0.00,meteobridge,2013-04-10 06:10:00,
2013-04-10 02:15:00,44.1,42.4,29.88,North,0,1.6,2.2,94,0.00,,,0.00,meteobridge,2013-04-10 06:15:00,
2013-04-10 02:20:00,44.2,42.6,29.89,NE,45,0.0,0.0,94,0.00,,,0.00,meteobridge,2013-04-10 06:20:00,
2013-04-10 02:25:00,44.4,42.8,29.88,NE,45,0.7,1.6,94,0.00,,,0.00,meteobridge,2013-04-10 06:25:00,
2013-04-10 02:30:00,44.6,42.6,29.89,North,0,0.7,2.2,93,0.00,,,0.00,meteobridge,2013-04-10 06:30:00,
2013-04-10 02:35:00,44.8,42.8,29.89,North,0,1.6,1.6,93,0.00,,,0.00,meteobridge,2013-04-10 06:35:00,
2013-04-10 02:41:00,45.0,43.0,29.90,North,0,2.2,2.2,93,0.00,,,0.00,meteobridge,2013-04-10 06:41:00,
2013-04-10 02:46:00,45.1,43.0,29.89,NW,315,0.0,0.7,92,0.00,,,0.00,meteobridge,2013-04-10 06:46:00,
2013-04-10 02:51:00,45.3,43.2,29.91,NW,315,0.7,0.7,92,0.00,,,0.00,meteobridge,2013-04-10 06:51:00,
2013-04-10 02:56:00,45.3,43.2,29.91,SE,135,0.7,0.7,92,0.00,,,0.00,meteobridge,2013-04-10 06:56:00,
2013-04-10 03:01:00,45.5,43.3,29.89,NW,315,1.6,2.2,92,0.00,,,0.00,meteobridge,2013-04-10 07:01:00,
2013-04-10 03:07:00,45.5,43.0,29.91,East,90,1.6,1.6,91,0.00,,,0.00,meteobridge,2013-04-10 07:07:00,
2013-04-10 03:12:00,45.7,43.2,29.90,NE,45,0.7,1.6,91,0.00,,,0.00,meteobridge,2013-04-10 07:12:00,
2013-04-10 03:17:00,45.7,43.2,29.91,East,90,0.0,0.7,91,0.00,,,0.00,meteobridge,2013-04-10 07:17:00,
2013-04-10 03:22:00,45.7,43.2,29.90,NE,45,0.7,0.7,91,0.00,,,0.00,meteobridge,2013-04-10 07:22:00,
2013-04-10 03:27:00,45.7,43.0,29.90,NE,45,1.6,1.6,90,0.00,,,0.00,meteobridge,2013-04-10 07:27:00,
2013-04-10 03:32:00,45.7,43.0,29.91,SE,135,0.7,0.7,90,0.00,,,0.00,meteobridge,2013-04-10 07:32:00,
2013-04-10 03:37:00,45.9,43.2,29.90,NW,315,0.7,1.6,90,0.00,,,0.00,meteobridge,2013-04-10 07:37:00,
2013-04-10 03:42:00,45.9,43.2,29.90,West,270,1.6,1.6,90,0.00,,,0.00,meteobridge,2013-04-10 07:42:00,
2013-04-10 03:48:00,45.9,43.2,29.91,South,180,1.6,1.6,90,0.00,,,0.00,meteobridge,2013-04-10 07:48:00,
2013-04-10 03:53:00,46.0,43.3,29.92,SE,135,0.7,1.6,90,0.00,,,0.00,meteobridge,2013-04-10 07:53:00,
2013-04-10 03:58:00,46.0,43.3,29.91,West,270,1.6,1.6,90,0.00,,,0.00,meteobridge,2013-04-10 07:58:00,
2013-04-10 04:03:00,45.9,43.2,29.91,West,270,0.7,0.7,90,0.00,,,0.00,meteobridge,2013-04-10 08:03:00,
2013-04-10 04:08:00,45.7,43.0,29.92,SW,225,2.2,2.2,90,0.00,,,0.00,meteobridge,2013-04-10 08:08:00,
2013-04-10 04:13:00,45.7,43.2,29.95,SE,135,2.2,2.2,91,0.00,,,0.00,meteobridge,2013-04-10 08:13:00,
2013-04-10 04:19:00,45.7,43.2,29.95,West,270,1.6,2.2,91,0.00,,,0.00,meteobridge,2013-04-10 08:19:00,
2013-04-10 04:24:00,45.5,43.3,29.94,SW,225,1.6,1.6,92,0.01,,,0.01,meteobridge,2013-04-10 08:24:00,
2013-04-10 04:29:00,45.5,43.3,29.96,South,180,1.6,3.1,92,0.01,,,0.01,meteobridge,2013-04-10 08:29:00,
2013-04-10 04:34:00,45.3,43.2,29.95,North,0,0.7,0.7,92,0.01,,,0.01,meteobridge,2013-04-10 08:34:00,
2013-04-10 04:39:00,45.3,43.3,29.95,NW,315,0.0,0.0,93,0.01,,,0.01,meteobridge,2013-04-10 08:39:00,
2013-04-10 04:44:00,45.1,43.2,29.94,NW,315,0.0,0.0,93,0.01,,,0.01,meteobridge,2013-04-10 08:44:00,
2013-04-10 04:50:00,45.1,43.2,29.95,NW,315,0.0,0.7,93,0.02,,,0.02,meteobridge,2013-04-10 08:50:00,
2013-04-10 04:55:00,45.1,43.2,29.93,North,0,0.7,1.6,93,0.04,,,0.04,meteobridge,2013-04-10 08:55:00,
2013-04-10 05:00:00,45.0,43.3,29.93,North,0,0.7,0.7,94,0.05,,,0.05,meteobridge,2013-04-10 09:00:00,
2013-04-10 05:05:00,45.0,43.3,29.92,North,0,0.0,0.7,94,0.06,,,0.06,meteobridge,2013-04-10 09:05:00,
2013-04-10 05:10:00,45.0,43.3,29.91,North,0,0.0,0.0,94,0.06,,,0.06,meteobridge,2013-04-10 09:10:00,
2013-04-10 05:15:00,44.8,43.5,29.90,NE,45,1.6,1.6,95,0.06,,,0.06,meteobridge,2013-04-10 09:15:00,
2013-04-10 05:20:00,44.6,43.3,29.90,NW,315,1.6,3.1,95,0.07,,,0.07,meteobridge,2013-04-10 09:20:00,
2013-04-10 05:26:00,44.6,43.5,29.89,North,0,1.6,2.2,96,0.06,,,0.07,meteobridge,2013-04-10 09:26:00,
2013-04-10 05:31:00,44.6,43.5,29.88,North,0,2.2,2.2,96,0.06,,,0.07,meteobridge,2013-04-10 09:31:00,
2013-04-10 05:36:00,44.4,43.9,29.88,NNE,23,1.6,2.2,98,0.06,,,0.07,meteobridge,2013-04-10 09:36:00,
2013-04-10 05:41:00,44.2,43.7,29.87,NW,315,1.6,2.2,98,0.06,,,0.07,meteobridge,2013-04-10 09:41:00,
2013-04-10 05:46:00,44.2,43.7,29.86,North,0,2.2,2.2,98,0.05,,,0.07,meteobridge,2013-04-10 09:46:00,
2013-04-10 05:51:00,44.1,43.5,29.85,NW,315,2.2,3.1,98,0.04,,,0.07,meteobridge,2013-04-10 09:51:00,
2013-04-10 05:56:00,44.1,43.5,29.85,NW,315,1.6,1.6,98,0.04,,,0.07,meteobridge,2013-04-10 09:56:00,
2013-04-10 06:01:00,43.9,43.3,29.85,NW,315,2.2,2.2,98,0.02,,,0.07,meteobridge,2013-04-10 10:01:00,
2013-04-10 06:06:00,43.7,43.2,29.85,North,0,3.1,3.1,98,0.01,,,0.07,meteobridge,2013-04-10 10:06:00,
2013-04-10 06:12:00,43.7,43.2,29.85,North,0,2.2,2.2,98,0.01,,,0.07,meteobridge,2013-04-10 10:12:00,
2013-04-10 06:17:00,43.5,43.0,29.84,NNW,338,1.6,2.2,98,0.00,,,0.07,meteobridge,2013-04-10 10:17:00,
2013-04-10 06:22:00,43.5,43.0,29.84,West,270,3.1,4.5,98,0.00,,,0.07,meteobridge,2013-04-10 10:22:00,
2013-04-10 06:27:00,43.3,42.8,29.84,NW,315,3.1,3.1,98,0.00,,,0.07,meteobridge,2013-04-10 10:27:00,
2013-04-10 06:32:00,43.3,42.8,29.85,NW,315,2.2,3.1,98,0.00,,,0.07,meteobridge,2013-04-10 10:32:00,
2013-04-10 06:37:00,43.5,43.0,29.85,NW,315,1.6,3.8,98,0.00,,,0.07,meteobridge,2013-04-10 10:37:00,
2013-04-10 06:43:00,43.5,43.0,29.85,NW,315,2.2,3.8,98,0.00,,,0.07,meteobridge,2013-04-10 10:43:00,
2013-04-10 06:48:00,43.7,43.2,29.84,North,0,3.1,4.5,98,0.00,,,0.07,meteobridge,2013-04-10 10:48:00,
2013-04-10 06:53:00,43.5,43.0,29.83,NW,315,3.1,3.1,98,0.00,,,0.07,meteobridge,2013-04-10 10:53:00,
2013-04-10 06:58:00,43.7,43.2,29.83,NW,315,5.4,5.4,98,0.00,,,0.07,meteobridge,2013-04-10 10:58:00,
2013-04-10 07:03:00,43.9,43.3,29.84,North,0,3.8,3.8,98,0.00,,,0.07,meteobridge,2013-04-10 11:03:00,
2013-04-10 07:08:00,44.1,43.5,29.85,West,270,3.1,3.8,98,0.00,,,0.07,meteobridge,2013-04-10 11:08:00,
2013-04-10 07:14:00,44.6,43.9,29.85,WNW,293,3.1,3.1,97,0.00,,,0.07,meteobridge,2013-04-10 11:14:00,
2013-04-10 07:19:00,44.8,44.1,29.85,NW,315,1.6,3.8,97,0.00,,,0.07,meteobridge,2013-04-10 11:19:00,
2013-04-10 07:24:00,45.0,44.2,29.86,West,270,3.1,3.1,97,0.00,,,0.07,meteobridge,2013-04-10 11:24:00,
2013-04-10 07:29:00,44.8,44.1,29.86,NW,315,2.2,2.2,97,0.00,,,0.07,meteobridge,2013-04-10 11:29:00,
2013-04-10 07:34:00,44.8,44.1,29.87,West,270,1.6,3.1,97,0.00,,,0.07,meteobridge,2013-04-10 11:34:00,
2013-04-10 07:39:00,45.0,44.2,29.87,NW,315,1.6,2.2,97,0.00,,,0.07,meteobridge,2013-04-10 11:39:00,
2013-04-10 07:45:00,45.0,44.2,29.87,North,0,2.2,2.2,97,0.00,,,0.07,meteobridge,2013-04-10 11:45:00,
2013-04-10 07:50:00,45.3,44.6,29.86,West,270,3.1,3.1,97,0.00,,,0.07,meteobridge,2013-04-10 11:50:00,
2013-04-10 07:55:00,45.7,45.0,29.87,North,0,2.2,2.2,97,0.00,,,0.07,meteobridge,2013-04-10 11:55:00,
2013-04-10 08:00:00,45.9,45.1,29.86,North,0,2.2,6.0,97,0.00,,,0.07,meteobridge,2013-04-10 12:00:00,
2013-04-10 08:05:00,46.0,45.3,29.86,West,270,2.2,3.1,97,0.00,,,0.07,meteobridge,2013-04-10 12:05:00,
2013-04-10 08:10:00,45.9,45.1,29.86,WSW,248,3.1,4.5,97,0.00,,,0.07,meteobridge,2013-04-10 12:10:00,
2013-04-10 08:16:00,46.0,45.3,29.88,SW,225,3.8,3.8,97,0.00,,,0.07,meteobridge,2013-04-10 12:16:00,
2013-04-10 08:21:00,46.4,45.7,29.88,South,180,3.8,3.8,97,0.00,,,0.07,meteobridge,2013-04-10 12:21:00,
2013-04-10 08:26:00,47.1,46.4,29.88,West,270,1.6,1.6,97,0.00,,,0.07,meteobridge,2013-04-10 12:26:00,
2013-04-10 08:31:00,47.3,46.2,29.88,SW,225,3.1,3.1,96,0.00,,,0.07,meteobridge,2013-04-10 12:31:00,
2013-04-10 08:36:00,47.5,46.4,29.88,SW,225,3.1,3.8,96,0.00,,,0.07,meteobridge,2013-04-10 12:36:00,
2013-04-10 08:41:00,48.4,46.8,29.87,West,270,2.2,3.1,94,0.00,,,0.07,meteobridge,2013-04-10 12:41:00,
2013-04-10 08:47:00,49.8,47.7,29.88,NW,315,3.8,3.8,92,0.00,,,0.07,meteobridge,2013-04-10 12:47:00,
2013-04-10 08:52:00,50.4,46.9,29.88,North,0,3.1,4.5,88,0.00,,,0.07,meteobridge,2013-04-10 12:52:00,
2013-04-10 08:57:00,50.0,46.0,29.88,North,0,4.5,4.5,86,0.00,,,0.07,meteobridge,2013-04-10 12:57:00,
2013-04-10 09:02:00,50.0,45.7,29.88,West,270,4.5,4.5,85,0.00,,,0.07,meteobridge,2013-04-10 13:02:00,
2013-04-10 09:07:00,50.4,46.0,29.88,West,270,3.1,3.1,85,0.00,,,0.07,meteobridge,2013-04-10 13:07:00,
2013-04-10 09:12:00,50.2,45.5,29.88,North,0,3.8,3.8,84,0.00,,,0.07,meteobridge,2013-04-10 13:12:00,
2013-04-10 09:18:00,50.9,46.2,29.88,West,270,2.2,5.4,84,0.00,,,0.07,meteobridge,2013-04-10 13:18:00,
2013-04-10 09:23:00,51.6,46.6,29.88,NE,45,3.8,5.4,83,0.00,,,0.07,meteobridge,2013-04-10 13:23:00,
2013-04-10 09:28:00,51.6,46.0,29.88,West,270,3.1,3.1,81,0.00,,,0.07,meteobridge,2013-04-10 13:28:00,
2013-04-10 09:33:00,52.7,47.1,29.88,West,270,2.2,3.1,81,0.00,,,0.07,meteobridge,2013-04-10 13:33:00,
2013-04-10 09:38:00,52.7,45.7,29.88,West,270,3.8,4.5,77,0.00,,,0.07,meteobridge,2013-04-10 13:38:00,
2013-04-10 09:43:00,53.4,46.4,29.87,NE,45,6.9,6.9,77,0.00,,,0.07,meteobridge,2013-04-10 13:43:00,
2013-04-10 09:48:00,53.8,45.7,29.88,North,0,5.4,5.4,74,0.00,,,0.07,meteobridge,2013-04-10 13:48:00,
2013-04-10 09:54:00,54.5,45.7,29.88,NW,315,3.1,3.8,72,0.00,,,0.07,meteobridge,2013-04-10 13:54:00,
2013-04-10 09:59:00,54.9,45.7,29.88,NW,315,6.9,6.9,71,0.00,,,0.07,meteobridge,2013-04-10 13:59:00,
2013-04-10 10:04:00,54.0,44.8,29.88,West,270,4.5,4.5,71,0.00,,,0.07,meteobridge,2013-04-10 14:04:00,
2013-04-10 10:09:00,53.6,45.1,29.88,West,270,3.1,5.4,73,0.00,,,0.07,meteobridge,2013-04-10 14:09:00,
2013-04-10 10:14:00,53.6,45.1,29.88,West,270,2.2,3.8,73,0.00,,,0.07,meteobridge,2013-04-10 14:14:00,
2013-04-10 10:19:00,54.1,45.3,29.88,NW,315,3.1,5.4,72,0.00,,,0.07,meteobridge,2013-04-10 14:19:00,
2013-04-10 10:25:00,55.0,46.2,29.88,West,270,3.8,4.5,72,0.00,,,0.07,meteobridge,2013-04-10 14:25:00,
2013-04-10 10:30:00,55.8,46.0,29.88,West,270,3.1,3.8,70,0.00,,,0.07,meteobridge,2013-04-10 14:30:00,
2013-04-10 10:35:00,57.0,46.6,29.88,NE,45,3.1,5.4,68,0.00,,,0.07,meteobridge,2013-04-10 14:35:00,
2013-04-10 10:40:00,55.8,45.0,29.88,SW,225,3.8,3.8,67,0.00,,,0.07,meteobridge,2013-04-10 14:40:00,
2013-04-10 10:45:00,56.3,45.5,29.88,West,270,4.5,4.5,67,0.00,,,0.07,meteobridge,2013-04-10 14:45:00,
2013-04-10 10:50:00,56.1,45.3,29.88,NW,315,3.1,4.5,67,0.00,,,0.07,meteobridge,2013-04-10 14:50:00,
2013-04-10 10:56:00,57.2,45.9,29.89,NE,45,3.8,3.8,66,0.00,,,0.07,meteobridge,2013-04-10 14:56:00,
2013-04-10 11:01:00,57.9,46.6,29.89,SW,225,2.2,3.8,66,0.00,,,0.07,meteobridge,2013-04-10 15:01:00,
2013-04-10 11:06:00,59.5,47.3,29.88,SW,225,3.1,3.1,64,0.00,,,0.07,meteobridge,2013-04-10 15:06:00,
2013-04-10 11:11:00,60.3,46.8,29.87,SW,225,6.0,6.0,61,0.00,,,0.07,meteobridge,2013-04-10 15:11:00,
2013-04-10 11:16:00,60.6,47.5,29.88,SW,225,3.8,3.8,62,0.00,,,0.07,meteobridge,2013-04-10 15:16:00,
2013-04-10 11:21:00,60.6,46.6,29.89,SW,225,3.8,3.8,60,0.00,,,0.07,meteobridge,2013-04-10 15:21:00,
2013-04-10 11:26:00,58.6,45.3,29.89,West,270,4.5,6.0,61,0.00,,,0.07,meteobridge,2013-04-10 15:26:00,
2013-04-10 11:31:00,57.7,45.7,29.90,NW,315,3.1,3.8,64,0.00,,,0.07,meteobridge,2013-04-10 15:31:00,
2013-04-10 11:36:00,57.7,45.7,29.90,SW,225,6.9,6.9,64,0.00,,,0.07,meteobridge,2013-04-10 15:36:00,
2013-04-10 11:41:00,56.5,44.8,29.90,NW,315,3.8,6.0,65,0.00,,,0.07,meteobridge,2013-04-10 15:41:00,
2013-04-10 11:47:00,56.7,45.9,29.90,West,270,7.6,7.6,67,0.00,,,0.07,meteobridge,2013-04-10 15:47:00,
2013-04-10 11:52:00,56.3,45.5,29.90,SW,225,6.0,6.0,67,0.00,,,0.07,meteobridge,2013-04-10 15:52:00,
2013-04-10 11:57:00,55.8,44.6,29.90,SW,225,3.8,3.8,66,0.00,,,0.07,meteobridge,2013-04-10 15:57:00,
2013-04-10 12:02:00,56.3,45.5,29.91,West,270,8.3,8.3,67,0.00,,,0.07,meteobridge,2013-04-10 16:02:00,
2013-04-10 12:07:00,55.0,44.2,29.91,West,270,5.4,6.0,67,0.00,,,0.07,meteobridge,2013-04-10 16:07:00,
2013-04-10 12:12:00,55.2,44.4,29.91,West,270,6.0,6.9,67,0.00,,,0.07,meteobridge,2013-04-10 16:12:00,
2013-04-10 12:17:00,55.4,44.6,29.91,South,180,5.4,6.0,67,0.00,,,0.07,meteobridge,2013-04-10 16:17:00,
2013-04-10 12:22:00,54.5,44.6,29.91,SW,225,3.8,5.4,69,0.00,,,0.07,meteobridge,2013-04-10 16:22:00,
2013-04-10 12:27:00,54.5,44.6,29.91,West,270,4.5,4.5,69,0.00,,,0.07,meteobridge,2013-04-10 16:27:00,
2013-04-10 12:33:00,55.0,44.6,29.91,SW,225,4.5,6.9,68,0.00,,,0.07,meteobridge,2013-04-10 16:33:00,
2013-04-10 12:38:00,54.7,44.2,29.91,SW,225,6.0,6.9,68,0.00,,,0.07,meteobridge,2013-04-10 16:38:00,
2013-04-10 12:43:00,54.5,44.6,29.91,West,270,5.4,5.4,69,0.00,,,0.07,meteobridge,2013-04-10 16:43:00,
2013-04-10 12:48:00,54.3,44.4,29.91,SW,225,4.5,6.9,69,0.00,,,0.07,meteobridge,2013-04-10 16:48:00,
2013-04-10 12:53:00,54.3,44.4,29.91,South,180,3.8,3.8,69,0.00,,,0.07,meteobridge,2013-04-10 16:53:00,
2013-04-10 12:58:00,55.2,44.8,29.91,West,270,3.1,5.4,68,0.00,,,0.07,meteobridge,2013-04-10 16:58:00,
2013-04-10 13:04:00,55.0,43.9,29.91,West,270,3.1,5.4,66,0.00,,,0.07,meteobridge,2013-04-10 17:04:00,
2013-04-10 13:09:00,55.2,44.8,29.91,West,270,3.8,6.0,68,0.00,,,0.07,meteobridge,2013-04-10 17:09:00,
2013-04-10 13:14:00,55.6,44.4,29.91,NW,315,4.5,4.5,66,0.00,,,0.07,meteobridge,2013-04-10 17:14:00,
2013-04-10 13:19:00,55.4,44.2,29.91,NW,315,3.8,6.0,66,0.00,,,0.07,meteobridge,2013-04-10 17:19:00,
2013-04-10 13:24:00,56.3,44.6,29.91,SW,225,4.5,4.5,65,0.00,,,0.07,meteobridge,2013-04-10 17:24:00,
2013-04-10 13:29:00,55.8,44.2,29.93,SW,225,6.0,6.0,65,0.00,,,0.07,meteobridge,2013-04-10 17:29:00,
2013-04-10 13:34:00,56.3,44.6,29.92,South,180,5.4,5.4,65,0.00,,,0.07,meteobridge,2013-04-10 17:34:00,
2013-04-10 13:39:00,55.4,43.9,29.92,NW,315,3.1,5.4,65,0.00,,,0.07,meteobridge,2013-04-10 17:39:00,
2013-04-10 13:44:00,57.0,45.3,29.92,NW,315,4.5,4.5,65,0.00,,,0.07,meteobridge,2013-04-10 17:44:00,
2013-04-10 13:49:00,56.5,44.4,29.92,WNW,293,3.8,4.5,64,0.00,,,0.07,meteobridge,2013-04-10 17:49:00,
2013-04-10 13:54:00,57.2,44.8,29.91,West,270,2.2,4.5,63,0.00,,,0.07,meteobridge,2013-04-10 17:54:00,
2013-04-10 13:59:00,57.6,44.6,29.92,SW,225,2.2,3.8,62,0.00,,,0.07,meteobridge,2013-04-10 17:59:00,
2013-04-10 14:05:00,59.2,45.3,29.92,North,0,4.5,4.5,60,0.00,,,0.07,meteobridge,2013-04-10 18:05:00,
2013-04-10 14:10:00,58.8,44.6,29.92,West,270,5.4,5.4,59,0.00,,,0.07,meteobridge,2013-04-10 18:10:00,
2013-04-10 14:15:00,58.5,45.1,29.92,SW,225,6.0,6.0,61,0.00,,,0.07,meteobridge,2013-04-10 18:15:00,
2013-04-10 14:20:00,58.5,44.2,29.91,SW,225,3.1,5.4,59,0.00,,,0.07,meteobridge,2013-04-10 18:20:00,
2013-04-10 14:25:00,58.3,44.4,29.91,NW,315,4.5,4.5,60,0.00,,,0.07,meteobridge,2013-04-10 18:25:00,
2013-04-10 14:30:00,58.3,44.4,29.92,SW,225,3.8,4.5,60,0.00,,,0.07,meteobridge,2013-04-10 18:30:00,
2013-04-10 14:35:00,59.9,44.6,29.91,North,0,3.8,3.8,57,0.00,,,0.07,meteobridge,2013-04-10 18:35:00,
2013-04-10 14:40:00,59.7,44.1,29.91,North,0,4.5,4.5,56,0.00,,,0.07,meteobridge,2013-04-10 18:40:00,
2013-04-10 14:45:00,59.2,44.4,29.90,North,0,2.2,3.8,58,0.00,,,0.07,meteobridge,2013-04-10 18:45:00,
2013-04-10 14:50:00,59.7,44.4,29.91,West,270,4.5,4.5,57,0.00,,,0.07,meteobridge,2013-04-10 18:50:00,
2013-04-10 14:55:00,59.4,43.7,29.91,SW,225,3.1,3.1,56,0.00,,,0.07,meteobridge,2013-04-10 18:55:00,
2013-04-10 15:00:00,59.5,43.9,29.90,West,270,3.1,3.1,56,0.00,,,0.07,meteobridge,2013-04-10 19:00:00,
2013-04-10 15:06:00,59.9,44.2,29.90,SE,135,4.5,4.5,56,0.00,,,0.07,meteobridge,2013-04-10 19:06:00,
2013-04-10 15:11:00,59.5,43.3,29.90,North,0,1.6,4.5,55,0.00,,,0.07,meteobridge,2013-04-10 19:11:00,
2013-04-10 15:16:00,59.7,44.1,29.90,SW,225,2.2,2.2,56,0.00,,,0.07,meteobridge,2013-04-10 19:16:00,
2013-04-10 15:21:00,60.4,44.6,29.90,NW,315,3.1,3.8,56,0.00,,,0.07,meteobridge,2013-04-10 19:21:00,
2013-04-10 15:27:00,60.6,43.9,29.90,North,0,2.2,3.1,54,0.00,,,0.07,meteobridge,2013-04-10 19:27:00,
2013-04-10 15:32:00,59.9,44.2,29.90,East,90,3.1,3.1,56,0.00,,,0.07,meteobridge,2013-04-10 19:32:00,
2013-04-10 15:37:00,61.5,44.2,29.90,SE,135,2.2,3.1,53,0.00,,,0.07,meteobridge,2013-04-10 19:37:00,
2013-04-10 15:42:00,61.3,44.1,29.89,NNE,23,3.8,3.8,53,0.00,,,0.07,meteobridge,2013-04-10 19:42:00,
2013-04-10 15:47:00,60.8,43.5,29.88,NE,45,1.6,3.1,53,0.00,,,0.07,meteobridge,2013-04-10 19:47:00,
2013-04-10 15:52:00,61.2,43.9,29.87,SE,135,2.2,3.8,53,0.00,,,0.07,meteobridge,2013-04-10 19:52:00,
2013-04-10 15:58:00,60.3,43.5,29.87,West,270,2.2,4.5,54,0.00,,,0.07,meteobridge,2013-04-10 19:58:00,
2013-04-10 16:03:00,60.1,43.9,29.88,NE,45,3.8,4.5,55,0.00,,,0.07,meteobridge,2013-04-10 20:03:00,
2013-04-10 16:08:00,59.0,43.3,29.88,NW,315,3.1,3.1,56,0.00,,,0.07,meteobridge,2013-04-10 20:08:00,
2013-04-10 16:13:00,59.9,43.7,29.87,SW,225,2.2,3.8,55,0.00,,,0.07,meteobridge,2013-04-10 20:13:00,
2013-04-10 16:18:00,59.5,43.3,29.88,North,0,1.6,4.5,55,0.00,,,0.07,meteobridge,2013-04-10 20:18:00,
2013-04-10 16:24:00,59.9,43.7,29.88,South,180,2.2,3.1,55,0.00,,,0.07,meteobridge,2013-04-10 20:24:00,
2013-04-10 16:29:00,60.6,43.9,29.88,NW,315,2.2,3.1,54,0.00,,,0.07,meteobridge,2013-04-10 20:29:00,
2013-04-10 16:34:00,60.6,43.9,29.87,North,0,3.8,3.8,54,0.00,,,0.07,meteobridge,2013-04-10 20:34:00,
2013-04-10 16:39:00,60.3,43.5,29.88,West,270,2.2,2.2,54,0.00,,,0.07,meteobridge,2013-04-10 20:39:00,
2013-04-10 16:44:00,57.7,42.6,29.85,NE,45,5.4,5.4,57,0.00,,,0.07,meteobridge,2013-04-10 20:44:00,
2013-04-10 16:49:00,56.5,42.8,29.84,North,0,3.8,3.8,60,0.00,,,0.07,meteobridge,2013-04-10 20:49:00,
2013-04-10 16:54:00,55.2,42.4,29.84,West,270,4.5,4.5,62,0.00,,,0.07,meteobridge,2013-04-10 20:54:00,
2013-04-10 17:00:00,54.3,42.1,29.85,NW,315,5.4,5.4,63,0.00,,,0.07,meteobridge,2013-04-10 21:00:00,
2013-04-10 17:05:00,53.8,41.5,29.85,NW,315,4.5,4.5,63,0.00,,,0.07,meteobridge,2013-04-10 21:05:00,
2013-04-10 17:10:00,52.0,41.4,29.84,NW,315,3.1,3.1,67,0.00,,,0.07,meteobridge,2013-04-10 21:10:00,
2013-04-10 17:15:00,52.0,42.1,29.86,North,0,2.2,3.8,69,0.00,,,0.07,meteobridge,2013-04-10 21:15:00,
2013-04-10 17:20:00,53.2,42.6,29.87,West,270,3.8,3.8,67,0.00,,,0.07,meteobridge,2013-04-10 21:20:00,
2013-04-10 17:25:00,52.0,41.4,29.88,NW,315,3.1,3.8,67,0.00,,,0.07,meteobridge,2013-04-10 21:25:00,
2013-04-10 17:31:00,51.1,41.2,29.88,NW,315,5.4,5.4,69,0.00,,,0.07,meteobridge,2013-04-10 21:31:00,
2013-04-10 17:36:00,50.5,41.9,29.88,NW,315,1.6,3.1,72,0.00,,,0.07,meteobridge,2013-04-10 21:36:00,
2013-04-10 17:41:00,50.2,41.9,29.88,NW,315,3.1,3.1,73,0.00,,,0.07,meteobridge,2013-04-10 21:41:00,
2013-04-10 17:46:00,49.6,42.1,29.88,NW,315,5.4,5.4,75,0.00,,,0.07,meteobridge,2013-04-10 21:46:00,
2013-04-10 17:52:00,49.3,42.1,29.88,North,0,2.2,3.1,76,0.00,,,0.07,meteobridge,2013-04-10 21:52:00,
2013-04-10 17:57:00,49.3,42.4,29.89,North,0,2.2,3.1,77,0.00,,,0.07,meteobridge,2013-04-10 21:57:00,
2013-04-10 18:02:00,49.5,42.6,29.90,East,90,2.2,3.1,77,0.00,,,0.07,meteobridge,2013-04-10 22:02:00,
2013-04-10 18:07:00,49.5,42.6,29.89,SW,225,3.1,3.1,77,0.00,,,0.07,meteobridge,2013-04-10 22:07:00,
2013-04-10 18:12:00,49.1,42.3,29.90,NW,315,2.2,3.1,77,0.00,,,0.07,meteobridge,2013-04-10 22:12:00,
2013-04-10 18:17:00,48.9,42.1,29.89,North,0,3.1,3.1,77,0.00,,,0.07,meteobridge,2013-04-10 22:17:00,
2013-04-10 18:22:00,48.9,42.4,29.89,North,0,2.2,3.1,78,0.00,,,0.07,meteobridge,2013-04-10 22:22:00,
2013-04-10 18:28:00,48.7,42.3,29.89,North,0,3.8,3.8,78,0.00,,,0.07,meteobridge,2013-04-10 22:28:00,
2013-04-10 18:33:00,48.4,41.9,29.90,NW,315,1.6,1.6,78,0.00,,,0.07,meteobridge,2013-04-10 22:33:00,
2013-04-10 18:38:00,48.2,42.1,29.90,NE,45,2.2,3.1,79,0.00,,,0.07,meteobridge,2013-04-10 22:38:00,
2013-04-10 18:43:00,48.0,42.1,29.90,SW,225,2.2,2.2,80,0.00,,,0.07,meteobridge,2013-04-10 22:43:00,
2013-04-10 18:48:00,47.7,42.1,29.90,North,0,1.6,2.2,81,0.00,,,0.07,meteobridge,2013-04-10 22:48:00,
2013-04-10 18:53:00,47.7,42.1,29.90,NE,45,2.2,2.2,81,0.00,,,0.07,meteobridge,2013-04-10 22:53:00,
2013-04-10 18:59:00,47.5,42.3,29.88,North,0,2.2,2.2,82,0.00,,,0.07,meteobridge,2013-04-10 22:59:00,
2013-04-10 19:04:00,47.5,42.3,29.88,NW,315,3.8,5.4,82,0.00,,,0.07,meteobridge,2013-04-10 23:04:00,
2013-04-10 19:09:00,47.3,42.4,29.86,North,0,2.2,3.1,83,0.00,,,0.07,meteobridge,2013-04-10 23:09:00,
2013-04-10 19:14:00,46.9,42.4,29.85,NE,45,3.1,4.5,84,0.00,,,0.07,meteobridge,2013-04-10 23:14:00,
2013-04-10 19:19:00,46.9,42.6,29.83,North,0,2.2,3.1,85,0.00,,,0.07,meteobridge,2013-04-10 23:19:00,
2013-04-10 19:24:00,46.8,42.3,29.84,North,0,3.1,4.5,84,0.00,,,0.07,meteobridge,2013-04-10 23:24:00,
2013-04-10 19:30:00,46.6,42.1,29.86,North,0,1.6,3.8,84,0.00,,,0.07,meteobridge,2013-04-10 23:30:00,
2013-04-10 19:35:00,46.6,42.3,29.86,NE,45,3.1,3.1,85,0.00,,,0.07,meteobridge,2013-04-10 23:35:00,
2013-04-10 19:40:00,46.8,42.4,29.85,North,0,1.6,3.1,85,0.00,,,0.07,meteobridge,2013-04-10 23:40:00,
2013-04-10 19:45:00,46.8,42.4,29.84,NW,315,4.5,4.5,85,0.00,,,0.07,meteobridge,2013-04-10 23:45:00,
2013-04-10 19:50:00,46.6,42.3,29.85,South,180,3.1,4.5,85,0.00,,,0.07,meteobridge,2013-04-10 23:50:00,
2013-04-10 19:55:00,46.6,42.3,29.85,North,0,3.8,3.8,85,0.00,,,0.07,meteobridge,2013-04-10 23:55:00,
2013-04-10 20:01:00,46.6,42.3,29.85,NE,45,1.6,3.8,85,0.00,,,0.07,meteobridge,2013-04-11 00:01:00,
2013-04-10 20:06:00,46.6,42.3,29.86,North,0,2.2,3.8,85,0.00,,,0.07,meteobridge,2013-04-11 00:06:00,
2013-04-10 20:11:00,46.6,42.3,29.85,East,90,3.8,4.5,85,0.00,,,0.07,meteobridge,2013-04-11 00:11:00,
2013-04-10 20:16:00,46.6,42.1,29.84,NE,45,4.5,4.5,84,0.00,,,0.07,meteobridge,2013-04-11 00:16:00,
2013-04-10 20:21:00,46.6,42.1,29.84,NE,45,2.2,3.1,84,0.00,,,0.07,meteobridge,2013-04-11 00:21:00,
2013-04-10 20:26:00,46.6,42.1,29.84,North,0,2.2,3.1,84,0.00,,,0.07,meteobridge,2013-04-11 00:26:00,
2013-04-10 20:32:00,46.6,42.1,29.84,NW,315,3.1,3.8,84,0.00,,,0.07,meteobridge,2013-04-11 00:32:00,
2013-04-10 20:37:00,46.6,42.1,29.83,SW,225,3.1,3.8,84,0.00,,,0.07,meteobridge,2013-04-11 00:37:00,
2013-04-10 20:42:00,46.4,41.9,29.83,North,0,3.1,3.1,84,0.00,,,0.07,meteobridge,2013-04-11 00:42:00,
2013-04-10 20:47:00,46.2,41.7,29.85,South,180,2.2,3.8,84,0.00,,,0.07,meteobridge,2013-04-11 00:47:00,
2013-04-10 20:52:00,46.2,41.7,29.86,NE,45,3.1,3.1,84,0.00,,,0.07,meteobridge,2013-04-11 00:52:00,
2013-04-10 20:57:00,46.4,42.1,29.85,North,0,1.6,3.1,85,0.00,,,0.07,meteobridge,2013-04-11 00:57:00,
2013-04-10 21:02:00,46.4,41.9,29.85,North,0,3.1,3.1,84,0.00,,,0.07,meteobridge,2013-04-11 01:02:00,
2013-04-10 21:07:00,46.4,41.9,29.85,North,0,3.1,3.1,84,0.00,,,0.07,meteobridge,2013-04-11 01:07:00,
2013-04-10 21:13:00,46.4,41.9,29.84,North,0,3.8,3.8,84,0.00,,,0.07,meteobridge,2013-04-11 01:13:00,
2013-04-10 21:18:00,46.4,41.9,29.85,NE,45,2.2,2.2,84,0.00,,,0.07,meteobridge,2013-04-11 01:18:00,
2013-04-10 21:23:00,46.6,41.7,29.84,NE,45,3.1,3.1,83,0.00,,,0.07,meteobridge,2013-04-11 01:23:00,
2013-04-10 21:28:00,46.6,41.7,29.85,WSW,248,2.2,2.2,83,0.00,,,0.07,meteobridge,2013-04-11 01:28:00,
2013-04-10 21:33:00,46.8,41.5,29.87,SE,135,3.1,3.1,82,0.00,,,0.07,meteobridge,2013-04-11 01:33:00,
2013-04-10 21:38:00,46.9,42.1,29.91,South,180,0.7,2.2,83,0.01,,,0.08,meteobridge,2013-04-11 01:38:00,
2013-04-10 21:44:00,46.8,41.9,29.92,SE,135,1.6,1.6,83,0.01,,,0.08,meteobridge,2013-04-11 01:44:00,
2013-04-10 21:49:00,46.6,41.7,29.93,SE,135,3.1,3.1,83,0.02,,,0.09,meteobridge,2013-04-11 01:49:00,
2013-04-10 21:54:00,46.2,42.6,29.86,North,0,3.8,3.8,87,0.06,,,0.13,meteobridge,2013-04-11 01:54:00,
2013-04-10 21:59:00,45.9,43.3,29.85,East,90,2.2,2.2,91,0.07,,,0.14,meteobridge,2013-04-11 01:59:00,
2013-04-10 22:04:00,45.9,43.3,29.87,NE,45,3.1,3.1,91,0.07,,,0.14,meteobridge,2013-04-11 02:04:00,
2013-04-10 22:09:00,45.5,43.3,29.87,NE,45,3.8,3.8,92,0.08,,,0.15,meteobridge,2013-04-11 02:09:00,
2013-04-10 22:15:00,45.3,43.2,29.86,NE,45,2.2,2.2,92,0.11,,,0.18,meteobridge,2013-04-11 02:15:00,
2013-04-10 22:20:00,45.3,43.3,29.85,NW,315,1.6,2.2,93,0.13,,,0.20,meteobridge,2013-04-11 02:20:00,
2013-04-10 22:25:00,45.1,43.2,29.84,South,180,0.7,0.7,93,0.14,,,0.21,meteobridge,2013-04-11 02:25:00,
2013-04-10 22:30:00,45.1,43.2,29.84,NE,45,0.7,0.7,93,0.15,,,0.22,meteobridge,2013-04-11 02:30:00,
2013-04-10 22:35:00,45.0,43.0,29.84,North,0,3.1,3.1,93,0.15,,,0.22,meteobridge,2013-04-11 02:35:00,
2013-04-10 22:40:00,44.8,43.2,29.83,East,90,1.6,1.6,94,0.14,,,0.22,meteobridge,2013-04-11 02:40:00,
2013-04-10 22:46:00,44.8,43.2,29.83,NE,45,3.8,3.8,94,0.13,,,0.22,meteobridge,2013-04-11 02:46:00,
2013-04-10 22:51:00,44.8,43.2,29.83,East,90,2.2,2.2,94,0.13,,,0.22,meteobridge,2013-04-11 02:51:00,
2013-04-10 22:56:00,44.8,43.5,29.83,SW,225,1.6,2.2,95,0.08,,,0.22,meteobridge,2013-04-11 02:56:00,
2013-04-10 23:01:00,44.8,43.5,29.84,NE,45,1.6,3.1,95,0.08,,,0.22,meteobridge,2013-04-11 03:01:00,
2013-04-10 23:06:00,44.8,43.5,29.85,West,270,2.2,2.2,95,0.08,,,0.22,meteobridge,2013-04-11 03:06:00,
2013-04-10 23:11:00,45.0,43.7,29.85,East,90,0.0,0.7,95,0.06,,,0.22,meteobridge,2013-04-11 03:11:00,
2013-04-10 23:16:00,45.0,43.7,29.84,NE,45,3.1,3.1,95,0.04,,,0.22,meteobridge,2013-04-11 03:16:00,
2013-04-10 23:21:00,45.0,43.7,29.84,West,270,0.0,2.2,95,0.01,,,0.22,meteobridge,2013-04-11 03:21:00,
2013-04-10 23:27:00,45.0,43.7,29.84,East,90,1.6,3.1,95,0.00,,,0.22,meteobridge,2013-04-11 03:27:00,
2013-04-10 23:32:00,45.0,43.7,29.83,NW,315,1.6,1.6,95,0.00,,,0.22,meteobridge,2013-04-11 03:32:00,
2013-04-10 23:37:00,44.8,43.7,29.84,NW,315,1.6,2.2,96,0.00,,,0.22,meteobridge,2013-04-11 03:37:00,
2013-04-10 23:42:00,44.8,43.7,29.84,NE,45,2.2,3.1,96,0.00,,,0.22,meteobridge,2013-04-11 03:42:00,
2013-04-10 23:47:00,44.6,43.5,29.84,NE,45,0.0,1.6,96,0.00,,,0.22,meteobridge,2013-04-11 03:47:00,
2013-04-10 23:52:00,44.6,43.5,29.85,SE,135,0.0,0.0,96,0.00,,,0.22,meteobridge,2013-04-11 03:52:00,
2013-04-10 23:57:00,44.6,43.5,29.85,NE,45,1.6,2.2,96,0.00,,,0.22,meteobridge,2013-04-11 03:57:00,